Time;durP1;ratioP1;P1;durP2;ratioP2;P2;SDS_P1;SDS_P2;PMS_P1;PMS_P2;Temp;Humidity;BMP_temperature;BMP_pressure;BME280_temperature;BME280_humidity;BME280_pressure;Samples;Min_cycle;Max_cycle;Signal;HPM_P1;HPM_P2
2023/12/11 00:08:10;;;;;;;8.1;4.1;;;;;;;3.89;87.11;;;;;
2023/12/11 00:19:11;;;;;;;10.1;3.8;;;;;;;3.94;86.82;;;;;
2023/12/11 00:30:10;;;;;;;10.1;3.8;;;;;;;3.97;87.93;;;;;
2023/12/11 00:41:10;;;;;;;8.6;3.7;;;;;;;3.95;87.92;;;;;
2023/12/11 00:51:10;;;;;;;8.6;3.7;;;;;;;3.75;86.13;;;;;
2023/12/11 01:01:10;;;;;;;8.6;3.7;;;;;;;3.63;84.69;;;;;
2023/12/11 01:11:10;;;;;;;6.6;3.5;;;;;;;3.87;84.26;;;;;
2023/12/11 01:22:10;;;;;;;6.6;3.5;;;;;;;3.86;83.61;;;;;
2023/12/11 01:33:10;;;;;;;6.6;3.5;;;;;;;3.86;83.52;;;;;
2023/12/11 01:43:10;;;;;;;6.1;2.5;;;;;;;3.8;84.11;;;;;
2023/12/11 01:53:10;;;;;;;6.1;2.5;;;;;;;3.79;84.11;;;;;
2023/12/11 02:04:10;;;;;;;6.1;2.5;;;;;;;3.67;84.96;;;;;
2023/12/11 02:15:10;;;;;;;6.1;2.5;;;;;;;3.64;84.57;;;;;
2023/12/11 02:26:10;;;;;;;6.1;2.5;;;;;;;3.61;84.72;;;;;
2023/12/11 02:36:10;;;;;;;6.1;2.5;;;;;;;3.69;86.05;;;;;
2023/12/11 02:47:10;;;;;;;8.1;2.1;;;;;;;3.69;86.89;;;;;
2023/12/11 02:57:10;;;;;;;8.1;2.1;;;;;;;3.66;86.1;;;;;
2023/12/11 03:08:10;;;;;;;8.1;2.1;;;;;;;3.72;87.3;;;;;
2023/12/11 03:18:10;;;;;;;7.4;2.3;;;;;;;3.74;87.51;;;;;
2023/12/11 03:29:10;;;;;;;7.4;2.3;;;;;;;3.82;87.48;;;;;
2023/12/11 03:40:10;;;;;;;4.6;2.2;;;;;;;3.87;87.79;;;;;
2023/12/11 03:50:10;;;;;;;4.6;2.2;;;;;;;3.85;87.88;;;;;
2023/12/11 04:00:11;;;;;;;4.6;2.2;;;;;;;3.8;87.87;;;;;
2023/12/11 04:11:10;;;;;;;4;2.1;;;;;;;3.73;87.89;;;;;
2023/12/11 04:21:10;;;;;;;4;2.1;;;;;;;3.68;88.01;;;;;
2023/12/11 04:31:10;;;;;;;4;2.1;;;;;;;3.58;87.92;;;;;
2023/12/11 04:42:10;;;;;;;6.3;2.6;;;;;;;3.54;88.01;;;;;
2023/12/11 04:52:10;;;;;;;6.3;2.6;;;;;;;3.35;87.43;;;;;
2023/12/11 05:03:10;;;;;;;6.3;2.6;;;;;;;3.25;88.12;;;;;
2023/12/11 05:14:10;;;;;;;15.2;7.4;;;;;;;3.22;86.56;;;;;
2023/12/11 05:24:10;;;;;;;15.2;7.4;;;;;;;3.13;87.89;;;;;
2023/12/11 05:35:10;;;;;;;15.2;7.4;;;;;;;3.15;88.24;;;;;
2023/12/11 05:45:10;;;;;;;8.7;4;;;;;;;3.22;88.72;;;;;
2023/12/11 05:55:11;;;;;;;8.7;4;;;;;;;3.33;88.83;;;;;
2023/12/11 06:05:10;;;;;;;8.7;4;;;;;;;3.42;88.69;;;;;
2023/12/11 06:16:10;;;;;;;8.5;3.5;;;;;;;3.39;88.16;;;;;
2023/12/11 06:27:10;;;;;;;8.5;3.5;;;;;;;3.5;88.32;;;;;
2023/12/11 06:38:10;;;;;;;8.7;3.3;;;;;;;3.8;83.62;;;;;
2023/12/11 06:48:10;;;;;;;8.7;3.3;;;;;;;4.4;80.83;;;;;
2023/12/11 06:59:10;;;;;;;8.7;3.3;;;;;;;4.8;79.43;;;;;
2023/12/11 07:09:10;;;;;;;5.9;2.9;;;;;;;5.19;74.37;;;;;
2023/12/11 07:19:10;;;;;;;5.9;2.9;;;;;;;5.38;73.47;;;;;
2023/12/11 07:30:10;;;;;;;5.9;2.9;;;;;;;5.47;73.76;;;;;
2023/12/11 07:41:11;;;;;;;7.4;2.7;;;;;;;5.58;74.12;;;;;
2023/12/11 07:52:10;;;;;;;7.4;2.7;;;;;;;6;74.64;;;;;
2023/12/11 08:02:10;;;;;;;7.4;2.7;;;;;;;6.24;74.15;;;;;
2023/12/11 08:13:10;;;;;;;2.9;1.6;;;;;;;6.4;74.31;;;;;
2023/12/11 08:24:10;;;;;;;2.9;1.6;;;;;;;6.42;74.72;;;;;
2023/12/11 08:34:10;;;;;;;2.9;1.6;;;;;;;6.64;74.35;;;;;
2023/12/11 08:45:10;;;;;;;4.5;2.2;;;;;;;6.94;73.63;;;;;
2023/12/11 08:55:10;;;;;;;4.5;2.2;;;;;;;7.1;73.08;;;;;
2023/12/11 09:06:10;;;;;;;4.5;2.2;;;;;;;7.11;72.96;;;;;
2023/12/11 09:17:10;;;;;;;3;1.4;;;;;;;6.91;73.74;;;;;
2023/12/11 09:28:10;;;;;;;3;1.4;;;;;;;7.2;73.61;;;;;
2023/12/11 09:38:11;;;;;;;5.4;2.7;;;;;;;7.06;73.12;;;;;
2023/12/11 09:49:11;;;;;;;5.4;2.7;;;;;;;7.1;73.5;;;;;
2023/12/11 09:59:10;;;;;;;5.4;2.7;;;;;;;7.62;71.71;;;;;
2023/12/11 10:10:10;;;;;;;4.5;2.1;;;;;;;7.73;70.43;;;;;
2023/12/11 10:20:10;;;;;;;4.5;2.1;;;;;;;7.34;72.06;;;;;
2023/12/11 10:30:11;;;;;;;4.5;2.1;;;;;;;7.35;71.87;;;;;
2023/12/11 10:41:10;;;;;;;3.7;1.5;;;;;;;7.56;71.65;;;;;
2023/12/11 10:51:10;;;;;;;3.7;1.5;;;;;;;7.54;71.86;;;;;
2023/12/11 11:02:10;;;;;;;3.7;1.5;;;;;;;7.01;73.39;;;;;
2023/12/11 11:13:10;;;;;;;4.3;2;;;;;;;6.76;74.43;;;;;
2023/12/11 11:23:10;;;;;;;4.3;2;;;;;;;6.92;74.23;;;;;
2023/12/11 11:34:11;;;;;;;4.3;2;;;;;;;7.16;73.72;;;;;
2023/12/11 11:44:10;;;;;;;4.3;2.4;;;;;;;7.35;72.91;;;;;
2023/12/11 11:55:11;;;;;;;4.3;2.4;;;;;;;7.92;71.09;;;;;
2023/12/11 12:05:10;;;;;;;4.3;2.4;;;;;;;7.9;70.95;;;;;
2023/12/11 12:16:11;;;;;;;4.8;2.2;;;;;;;7.84;71.12;;;;;
2023/12/11 12:27:10;;;;;;;4.8;2.2;;;;;;;7.99;70.28;;;;;
2023/12/11 12:37:10;;;;;;;4.8;2.2;;;;;;;8.14;70.15;;;;;
2023/12/11 12:47:10;;;;;;;5.8;2.5;;;;;;;7.84;70.69;;;;;
2023/12/11 12:58:10;;;;;;;5.8;2.5;;;;;;;7.46;71.55;;;;;
2023/12/11 13:08:10;;;;;;;5.1;2;;;;;;;7.29;72.23;;;;;
2023/12/11 13:19:11;;;;;;;5.1;2;;;;;;;7.11;72.89;;;;;
2023/12/11 13:30:10;;;;;;;5.1;2;;;;;;;6.97;73.46;;;;;
2023/12/11 13:41:11;;;;;;;4.3;2.2;;;;;;;6.8;74.52;;;;;
2023/12/11 13:51:10;;;;;;;4.3;2.2;;;;;;;6.62;75.11;;;;;
2023/12/11 14:01:10;;;;;;;4.3;2.2;;;;;;;6.52;75.41;;;;;
2023/12/11 14:11:10;;;;;;;3.4;1.7;;;;;;;6.41;75.79;;;;;
2023/12/11 14:22:10;;;;;;;3.4;1.7;;;;;;;6.23;76.57;;;;;
2023/12/11 14:33:10;;;;;;;3.4;1.7;;;;;;;6.14;76.72;;;;;
2023/12/11 14:44:10;;;;;;;4.3;2.2;;;;;;;5.92;77.24;;;;;
2023/12/11 14:54:11;;;;;;;4.3;2.2;;;;;;;5.72;77.74;;;;;
2023/12/11 15:04:10;;;;;;;4.3;2.2;;;;;;;5.56;78.85;;;;;
2023/12/11 15:15:10;;;;;;;4.1;2;;;;;;;5.53;79.03;;;;;
2023/12/11 15:26:11;;;;;;;4.1;2;;;;;;;5.53;79.31;;;;;
2023/12/11 15:36:11;;;;;;;4.1;2;;;;;;;5.59;79.04;;;;;
2023/12/11 15:46:11;;;;;;;4.9;2.2;;;;;;;5.71;78.81;;;;;
2023/12/11 15:57:12;;;;;;;4.9;2.2;;;;;;;5.8;78.42;;;;;
2023/12/11 16:07:11;;;;;;;5.1;2.7;;;;;;;5.88;78.64;;;;;
2023/12/11 16:18:11;;;;;;;5.1;2.7;;;;;;;6;78.33;;;;;
2023/12/11 16:29:11;;;;;;;5.1;2.7;;;;;;;6.18;78.18;;;;;
2023/12/11 16:40:10;;;;;;;5;2.5;;;;;;;6.14;78.09;;;;;
2023/12/11 16:50:11;;;;;;;5;2.5;;;;;;;6.08;78.09;;;;;
2023/12/11 17:01:10;;;;;;;5;2.5;;;;;;;6.17;78.02;;;;;
2023/12/11 17:11:10;;;;;;;5.3;2.4;;;;;;;6.26;77.34;;;;;
2023/12/11 17:21:10;;;;;;;5.3;2.4;;;;;;;6.3;76.95;;;;;
2023/12/11 17:32:10;;;;;;;5.3;2.4;;;;;;;6.24;77.63;;;;;
2023/12/11 17:42:10;;;;;;;4.1;2.4;;;;;;;6.32;77.67;;;;;
2023/12/11 17:53:11;;;;;;;4.1;2.4;;;;;;;6.4;77.2;;;;;
2023/12/11 18:04:14;;;;;;;4.1;2.4;;;;;;;6.35;77.84;;;;;
2023/12/11 18:14:11;;;;;;;5.9;3.3;;;;;;;6.34;78.33;;;;;
2023/12/11 18:25:12;;;;;;;5.9;3.3;;;;;;;6.39;78.16;;;;;
2023/12/11 18:36:11;;;;;;;5.9;3.3;;;;;;;6.47;77.49;;;;;
2023/12/11 18:47:11;;;;;;;7;3;;;;;;;6.53;77.22;;;;;
2023/12/11 18:58:11;;;;;;;7;3;;;;;;;6.56;77.42;;;;;
2023/12/11 19:08:10;;;;;;;7.2;3.4;;;;;;;6.61;77.28;;;;;
2023/12/11 19:18:11;;;;;;;7.2;3.4;;;;;;;6.62;76.96;;;;;
2023/12/11 19:29:11;;;;;;;7.2;3.4;;;;;;;6.63;77.11;;;;;
2023/12/11 19:40:11;;;;;;;7.8;4.2;;;;;;;6.65;77.1;;;;;
2023/12/11 19:51:11;;;;;;;7.8;4.2;;;;;;;6.58;77.27;;;;;
2023/12/11 20:02:11;;;;;;;7.8;4.2;;;;;;;6.57;78.34;;;;;
2023/12/11 20:13:11;;;;;;;6.4;3.9;;;;;;;6.62;77.71;;;;;
2023/12/11 20:23:11;;;;;;;6.4;3.9;;;;;;;6.59;77.71;;;;;
2023/12/11 20:33:11;;;;;;;6.4;3.9;;;;;;;6.52;77.41;;;;;
2023/12/11 20:43:11;;;;;;;6.4;3.2;;;;;;;6.31;77.51;;;;;
2023/12/11 20:53:11;;;;;;;6.4;3.2;;;;;;;6.13;78.14;;;;;
2023/12/11 21:04:11;;;;;;;6.4;3.2;;;;;;;6.11;78.51;;;;;
2023/12/11 21:15:11;;;;;;;6.7;3.4;;;;;;;6.23;79.25;;;;;
2023/12/11 21:25:11;;;;;;;6.7;3.4;;;;;;;6.27;79.85;;;;;
2023/12/11 21:36:11;;;;;;;6.7;3.4;;;;;;;6.2;81.08;;;;;
2023/12/11 21:47:11;;;;;;;5.3;2.5;;;;;;;6.13;81.71;;;;;
2023/12/11 21:57:11;;;;;;;5.3;2.5;;;;;;;6.07;81.86;;;;;
2023/12/11 22:08:11;;;;;;;6.3;2.5;;;;;;;5.98;82.99;;;;;
2023/12/11 22:18:11;;;;;;;6.3;2.5;;;;;;;5.82;84.42;;;;;
2023/12/11 22:29:11;;;;;;;6.3;2.5;;;;;;;5.7;84.86;;;;;
2023/12/11 22:39:11;;;;;;;5.3;2.7;;;;;;;5.71;84.82;;;;;
2023/12/11 22:49:11;;;;;;;5.3;2.7;;;;;;;5.68;84.51;;;;;
2023/12/11 23:00:15;;;;;;;5.3;2.7;;;;;;;5.68;84.16;;;;;
2023/12/11 23:10:11;;;;;;;3.7;1.6;;;;;;;5.62;84.56;;;;;
2023/12/11 23:20:11;;;;;;;3.7;1.6;;;;;;;5.53;85.28;;;;;
2023/12/11 23:30:11;;;;;;;3.7;1.6;;;;;;;5.55;85.83;;;;;
2023/12/11 23:41:11;;;;;;;4.7;2.5;;;;;;;5.54;86.34;;;;;
2023/12/11 23:51:11;;;;;;;4.7;2.5;;;;;;;5.49;87.56;;;;;
